sensor_id;sensor_type;location;lat;lon;timestamp;P1;durP1;ratioP1;P2;durP2;ratioP2
43626;SDS011;29217;52.586;13.442;2023-06-04T00:01:39;16.20;;;4.82;;
43626;SDS011;29217;52.586;13.442;2023-06-04T00:04:05;11.77;;;5.28;;
43626;SDS011;29217;52.586;13.442;2023-06-04T00:06:32;9.13;;;4.72;;
43626;SDS011;29217;52.586;13.442;2023-06-04T00:08:58;7.57;;;4.35;;
43626;SDS011;29217;52.586;13.442;2023-06-04T00:11:24;13.07;;;4.45;;
43626;SDS011;29217;52.586;13.442;2023-06-04T00:13:54;12.05;;;4.72;;
43626;SDS011;29217;52.586;13.442;2023-06-04T00:16:20;30.83;;;6.15;;
43626;SDS011;29217;52.586;13.442;2023-06-04T00:18:52;25.95;;;5.15;;
43626;SDS011;29217;52.586;13.442;2023-06-04T00:21:18;24.80;;;4.90;;
43626;SDS011;29217;52.586;13.442;2023-06-04T00:23:46;21.23;;;5.13;;
43626;SDS011;29217;52.586;13.442;2023-06-04T00:26:12;14.35;;;5.28;;
43626;SDS011;29217;52.586;13.442;2023-06-04T00:28:38;16.00;;;5.60;;
43626;SDS011;29217;52.586;13.442;2023-06-04T00:31:06;25.55;;;5.15;;
43626;SDS011;29217;52.586;13.442;2023-06-04T00:33:38;15.23;;;5.28;;
43626;SDS011;29217;52.586;13.442;2023-06-04T00:36:04;17.05;;;4.45;;
43626;SDS011;29217;52.586;13.442;2023-06-04T00:38:30;16.60;;;4.93;;
43626;SDS011;29217;52.586;13.442;2023-06-04T00:40:56;12.43;;;4.72;;
43626;SDS011;29217;52.586;13.442;2023-06-04T00:43:22;21.50;;;4.82;;
43626;SDS011;29217;52.586;13.442;2023-06-04T00:45:50;7.63;;;4.32;;
43626;SDS011;29217;52.586;13.442;2023-06-04T00:48:21;6.45;;;3.70;;
43626;SDS011;29217;52.586;13.442;2023-06-04T00:50:47;7.07;;;3.75;;
43626;SDS011;29217;52.586;13.442;2023-06-04T00:53:14;5.88;;;3.30;;
43626;SDS011;29217;52.586;13.442;2023-06-04T00:55:40;8.98;;;4.15;;
43626;SDS011;29217;52.586;13.442;2023-06-04T00:58:08;4.65;;;3.13;;
43626;SDS011;29217;52.586;13.442;2023-06-04T01:00:38;8.88;;;3.50;;
43626;SDS011;29217;52.586;13.442;2023-06-04T01:03:05;13.50;;;3.60;;
43626;SDS011;29217;52.586;13.442;2023-06-04T01:08:04;6.82;;;3.28;;
43626;SDS011;29217;52.586;13.442;2023-06-04T01:10:34;5.20;;;3.25;;
43626;SDS011;29217;52.586;13.442;2023-06-04T01:13:00;6.82;;;2.80;;
43626;SDS011;29217;52.586;13.442;2023-06-04T01:15:26;5.68;;;2.80;;
43626;SDS011;29217;52.586;13.442;2023-06-04T01:17:53;4.82;;;2.78;;
43626;SDS011;29217;52.586;13.442;2023-06-04T01:20:36;3.35;;;2.42;;
43626;SDS011;29217;52.586;13.442;2023-06-04T01:23:24;8.88;;;2.97;;
43626;SDS011;29217;52.586;13.442;2023-06-04T01:25:58;13.85;;;5.15;;
43626;SDS011;29217;52.586;13.442;2023-06-04T01:28:27;12.02;;;2.70;;
43626;SDS011;29217;52.586;13.442;2023-06-04T01:30:56;8.63;;;2.65;;
43626;SDS011;29217;52.586;13.442;2023-06-04T01:33:24;9.40;;;2.35;;
43626;SDS011;29217;52.586;13.442;2023-06-04T01:35:52;5.32;;;2.13;;
43626;SDS011;29217;52.586;13.442;2023-06-04T01:38:19;5.15;;;2.28;;
43626;SDS011;29217;52.586;13.442;2023-06-04T01:40:45;7.60;;;2.55;;
43626;SDS011;29217;52.586;13.442;2023-06-04T01:43:11;8.70;;;2.67;;
43626;SDS011;29217;52.586;13.442;2023-06-04T01:45:38;10.38;;;3.05;;
43626;SDS011;29217;52.586;13.442;2023-06-04T01:48:04;7.80;;;2.60;;
43626;SDS011;29217;52.586;13.442;2023-06-04T01:50:32;19.20;;;3.53;;
43626;SDS011;29217;52.586;13.442;2023-06-04T01:53:00;10.80;;;2.83;;
43626;SDS011;29217;52.586;13.442;2023-06-04T01:55:27;22.90;;;3.70;;
43626;SDS011;29217;52.586;13.442;2023-06-04T01:57:54;20.55;;;3.97;;
43626;SDS011;29217;52.586;13.442;2023-06-04T02:00:21;25.58;;;3.15;;
43626;SDS011;29217;52.586;13.442;2023-06-04T02:02:47;19.83;;;3.17;;
43626;SDS011;29217;52.586;13.442;2023-06-04T02:05:13;35.08;;;3.58;;
43626;SDS011;29217;52.586;13.442;2023-06-04T02:07:40;50.00;;;4.93;;
43626;SDS011;29217;52.586;13.442;2023-06-04T02:10:13;47.20;;;3.95;;
43626;SDS011;29217;52.586;13.442;2023-06-04T02:12:54;29.15;;;3.25;;
43626;SDS011;29217;52.586;13.442;2023-06-04T02:15:20;24.27;;;3.40;;
43626;SDS011;29217;52.586;13.442;2023-06-04T02:17:47;22.13;;;3.85;;
43626;SDS011;29217;52.586;13.442;2023-06-04T02:20:15;13.35;;;3.35;;
43626;SDS011;29217;52.586;13.442;2023-06-04T02:22:43;23.20;;;3.35;;
43626;SDS011;29217;52.586;13.442;2023-06-04T02:25:12;14.38;;;4.00;;
43626;SDS011;29217;52.586;13.442;2023-06-04T02:27:41;20.27;;;2.90;;
43626;SDS011;29217;52.586;13.442;2023-06-04T02:30:07;12.65;;;3.03;;
43626;SDS011;29217;52.586;13.442;2023-06-04T02:32:33;16.85;;;3.35;;
43626;SDS011;29217;52.586;13.442;2023-06-04T02:35:01;14.85;;;3.15;;
43626;SDS011;29217;52.586;13.442;2023-06-04T02:37:29;14.20;;;2.70;;
43626;SDS011;29217;52.586;13.442;2023-06-04T02:39:58;8.27;;;2.28;;
43626;SDS011;29217;52.586;13.442;2023-06-04T02:42:23;7.50;;;2.60;;
43626;SDS011;29217;52.586;13.442;2023-06-04T02:44:49;8.10;;;2.22;;
43626;SDS011;29217;52.586;13.442;2023-06-04T02:47:18;9.38;;;2.33;;
43626;SDS011;29217;52.586;13.442;2023-06-04T02:49:44;15.75;;;2.80;;
43626;SDS011;29217;52.586;13.442;2023-06-04T02:52:11;13.80;;;2.75;;
43626;SDS011;29217;52.586;13.442;2023-06-04T02:54:42;16.77;;;2.78;;
43626;SDS011;29217;52.586;13.442;2023-06-04T02:57:07;23.00;;;3.25;;
43626;SDS011;29217;52.586;13.442;2023-06-04T02:59:33;11.07;;;2.85;;
43626;SDS011;29217;52.586;13.442;2023-06-04T03:02:01;9.52;;;2.78;;
43626;SDS011;29217;52.586;13.442;2023-06-04T03:04:27;11.05;;;3.28;;
43626;SDS011;29217;52.586;13.442;2023-06-04T03:06:59;10.55;;;2.88;;
43626;SDS011;29217;52.586;13.442;2023-06-04T03:09:25;26.33;;;3.17;;
43626;SDS011;29217;52.586;13.442;2023-06-04T03:11:56;16.25;;;3.35;;
43626;SDS011;29217;52.586;13.442;2023-06-04T03:14:25;18.40;;;2.35;;
43626;SDS011;29217;52.586;13.442;2023-06-04T03:16:57;16.42;;;2.53;;
43626;SDS011;29217;52.586;13.442;2023-06-04T03:19:26;30.45;;;3.20;;
43626;SDS011;29217;52.586;13.442;2023-06-04T03:21:56;27.25;;;2.97;;
43626;SDS011;29217;52.586;13.442;2023-06-04T03:24:22;16.10;;;3.25;;
43626;SDS011;29217;52.586;13.442;2023-06-04T03:26:50;14.82;;;3.50;;
43626;SDS011;29217;52.586;13.442;2023-06-04T03:29:25;17.10;;;2.55;;
43626;SDS011;29217;52.586;13.442;2023-06-04T03:31:51;6.90;;;2.20;;
43626;SDS011;29217;52.586;13.442;2023-06-04T03:34:19;7.75;;;2.20;;
43626;SDS011;29217;52.586;13.442;2023-06-04T03:36:49;14.02;;;2.50;;
43626;SDS011;29217;52.586;13.442;2023-06-04T03:39:18;3.28;;;2.20;;
43626;SDS011;29217;52.586;13.442;2023-06-04T03:41:50;5.50;;;2.03;;
43626;SDS011;29217;52.586;13.442;2023-06-04T03:44:16;6.90;;;2.08;;
43626;SDS011;29217;52.586;13.442;2023-06-04T03:46:47;7.47;;;2.35;;
43626;SDS011;29217;52.586;13.442;2023-06-04T03:49:15;6.22;;;2.10;;
43626;SDS011;29217;52.586;13.442;2023-06-04T03:51:44;2.95;;;2.08;;
43626;SDS011;29217;52.586;13.442;2023-06-04T03:54:10;3.45;;;2.20;;
43626;SDS011;29217;52.586;13.442;2023-06-04T03:56:37;4.57;;;2.30;;
43626;SDS011;29217;52.586;13.442;2023-06-04T03:59:03;6.15;;;2.28;;
43626;SDS011;29217;52.586;13.442;2023-06-04T04:01:29;4.40;;;2.47;;
43626;SDS011;29217;52.586;13.442;2023-06-04T04:03:55;9.85;;;2.72;;
43626;SDS011;29217;52.586;13.442;2023-06-04T04:06:21;5.40;;;2.33;;
43626;SDS011;29217;52.586;13.442;2023-06-04T04:08:47;4.68;;;2.47;;
43626;SDS011;29217;52.586;13.442;2023-06-04T04:11:15;3.72;;;2.28;;
43626;SDS011;29217;52.586;13.442;2023-06-04T04:13:41;6.60;;;2.40;;
43626;SDS011;29217;52.586;13.442;2023-06-04T04:16:08;5.45;;;2.40;;
43626;SDS011;29217;52.586;13.442;2023-06-04T04:18:35;4.05;;;2.00;;
43626;SDS011;29217;52.586;13.442;2023-06-04T04:21:04;3.28;;;1.98;;
43626;SDS011;29217;52.586;13.442;2023-06-04T04:23:30;4.43;;;2.15;;
43626;SDS011;29217;52.586;13.442;2023-06-04T04:26:05;3.63;;;2.38;;
43626;SDS011;29217;52.586;13.442;2023-06-04T04:28:34;4.35;;;2.40;;
43626;SDS011;29217;52.586;13.442;2023-06-04T04:31:01;4.63;;;2.70;;
43626;SDS011;29217;52.586;13.442;2023-06-04T04:33:28;4.07;;;2.30;;
43626;SDS011;29217;52.586;13.442;2023-06-04T04:35:58;4.50;;;2.60;;
43626;SDS011;29217;52.586;13.442;2023-06-04T04:38:26;5.28;;;2.63;;
43626;SDS011;29217;52.586;13.442;2023-06-04T04:40:53;4.13;;;2.58;;
43626;SDS011;29217;52.586;13.442;2023-06-04T04:43:29;3.10;;;2.30;;
43626;SDS011;29217;52.586;13.442;2023-06-04T04:45:57;4.63;;;2.33;;
43626;SDS011;29217;52.586;13.442;2023-06-04T04:48:28;4.70;;;2.38;;
43626;SDS011;29217;52.586;13.442;2023-06-04T04:50:54;7.88;;;2.42;;
43626;SDS011;29217;52.586;13.442;2023-06-04T04:53:26;6.82;;;2.45;;
43626;SDS011;29217;52.586;13.442;2023-06-04T04:55:57;4.28;;;2.30;;
43626;SDS011;29217;52.586;13.442;2023-06-04T04:58:23;9.18;;;2.50;;
43626;SDS011;29217;52.586;13.442;2023-06-04T05:00:53;10.38;;;2.80;;
43626;SDS011;29217;52.586;13.442;2023-06-04T05:03:19;12.98;;;2.78;;
43626;SDS011;29217;52.586;13.442;2023-06-04T05:05:50;4.88;;;2.47;;
43626;SDS011;29217;52.586;13.442;2023-06-04T05:08:16;5.32;;;2.38;;
43626;SDS011;29217;52.586;13.442;2023-06-04T05:10:46;3.80;;;2.00;;
43626;SDS011;29217;52.586;13.442;2023-06-04T05:13:12;9.07;;;2.30;;
43626;SDS011;29217;52.586;13.442;2023-06-04T05:15:38;7.18;;;2.20;;
43626;SDS011;29217;52.586;13.442;2023-06-04T05:18:07;16.05;;;3.17;;
43626;SDS011;29217;52.586;13.442;2023-06-04T05:20:33;3.65;;;2.20;;
43626;SDS011;29217;52.586;13.442;2023-06-04T05:23:02;2.70;;;1.90;;
43626;SDS011;29217;52.586;13.442;2023-06-04T05:25:29;7.32;;;2.80;;
43626;SDS011;29217;52.586;13.442;2023-06-04T05:27:57;4.55;;;2.75;;
43626;SDS011;29217;52.586;13.442;2023-06-04T05:30:23;6.00;;;2.22;;
43626;SDS011;29217;52.586;13.442;2023-06-04T05:32:50;3.33;;;1.95;;
43626;SDS011;29217;52.586;13.442;2023-06-04T05:35:18;5.57;;;2.17;;
43626;SDS011;29217;52.586;13.442;2023-06-04T05:37:44;2.60;;;2.03;;
43626;SDS011;29217;52.586;13.442;2023-06-04T05:40:19;3.70;;;2.17;;
43626;SDS011;29217;52.586;13.442;2023-06-04T05:42:46;9.68;;;2.10;;
43626;SDS011;29217;52.586;13.442;2023-06-04T05:45:12;4.13;;;2.03;;
43626;SDS011;29217;52.586;13.442;2023-06-04T05:47:42;4.38;;;2.00;;
43626;SDS011;29217;52.586;13.442;2023-06-04T05:50:12;3.53;;;1.33;;
43626;SDS011;29217;52.586;13.442;2023-06-04T05:52:38;2.63;;;1.75;;
43626;SDS011;29217;52.586;13.442;2023-06-04T05:55:09;2.65;;;1.27;;
43626;SDS011;29217;52.586;13.442;2023-06-04T05:57:35;3.20;;;1.52;;
43626;SDS011;29217;52.586;13.442;2023-06-04T06:00:02;4.80;;;1.48;;
43626;SDS011;29217;52.586;13.442;2023-06-04T06:02:34;3.05;;;1.45;;
43626;SDS011;29217;52.586;13.442;2023-06-04T06:05:00;2.03;;;1.40;;
43626;SDS011;29217;52.586;13.442;2023-06-04T06:07:33;3.17;;;1.40;;
43626;SDS011;29217;52.586;13.442;2023-06-04T06:10:01;2.83;;;1.60;;
43626;SDS011;29217;52.586;13.442;2023-06-04T06:12:30;7.57;;;1.60;;
43626;SDS011;29217;52.586;13.442;2023-06-04T06:14:59;4.82;;;2.67;;
43626;SDS011;29217;52.586;13.442;2023-06-04T06:17:27;16.65;;;1.58;;
43626;SDS011;29217;52.586;13.442;2023-06-04T06:19:53;9.82;;;1.75;;
43626;SDS011;29217;52.586;13.442;2023-06-04T06:22:20;1.85;;;1.23;;
43626;SDS011;29217;52.586;13.442;2023-06-04T06:24:46;4.82;;;1.50;;
43626;SDS011;29217;52.586;13.442;2023-06-04T06:27:15;5.93;;;1.40;;
43626;SDS011;29217;52.586;13.442;2023-06-04T06:29:41;3.15;;;1.35;;
43626;SDS011;29217;52.586;13.442;2023-06-04T06:32:07;2.83;;;1.60;;
43626;SDS011;29217;52.586;13.442;2023-06-04T06:34:33;7.30;;;1.95;;
43626;SDS011;29217;52.586;13.442;2023-06-04T06:36:59;3.00;;;1.48;;
43626;SDS011;29217;52.586;13.442;2023-06-04T06:39:25;2.90;;;1.42;;
43626;SDS011;29217;52.586;13.442;2023-06-04T06:41:51;4.85;;;1.60;;
43626;SDS011;29217;52.586;13.442;2023-06-04T06:44:17;2.30;;;1.50;;
43626;SDS011;29217;52.586;13.442;2023-06-04T06:46:46;3.00;;;1.35;;
43626;SDS011;29217;52.586;13.442;2023-06-04T06:49:13;3.20;;;1.40;;
43626;SDS011;29217;52.586;13.442;2023-06-04T06:51:46;6.53;;;1.65;;
43626;SDS011;29217;52.586;13.442;2023-06-04T06:54:14;4.30;;;1.48;;
43626;SDS011;29217;52.586;13.442;2023-06-04T06:56:41;5.22;;;1.80;;
43626;SDS011;29217;52.586;13.442;2023-06-04T06:59:07;7.93;;;1.30;;
43626;SDS011;29217;52.586;13.442;2023-06-04T07:01:35;2.20;;;1.08;;
43626;SDS011;29217;52.586;13.442;2023-06-04T07:04:01;6.65;;;1.20;;
43626;SDS011;29217;52.586;13.442;2023-06-04T07:06:27;1.75;;;1.23;;
43626;SDS011;29217;52.586;13.442;2023-06-04T07:08:55;5.32;;;1.10;;
43626;SDS011;29217;52.586;13.442;2023-06-04T07:11:21;2.50;;;1.13;;
43626;SDS011;29217;52.586;13.442;2023-06-04T07:13:50;2.33;;;1.08;;
43626;SDS011;29217;52.586;13.442;2023-06-04T07:16:16;2.78;;;1.30;;
43626;SDS011;29217;52.586;13.442;2023-06-04T07:18:44;5.05;;;1.30;;
43626;SDS011;29217;52.586;13.442;2023-06-04T07:21:10;4.30;;;1.10;;
43626;SDS011;29217;52.586;13.442;2023-06-04T07:23:36;4.93;;;0.93;;
43626;SDS011;29217;52.586;13.442;2023-06-04T07:26:02;2.28;;;0.90;;
43626;SDS011;29217;52.586;13.442;2023-06-04T07:28:28;3.63;;;1.00;;
43626;SDS011;29217;52.586;13.442;2023-06-04T07:30:57;2.42;;;1.52;;
43626;SDS011;29217;52.586;13.442;2023-06-04T07:33:23;1.80;;;0.88;;
43626;SDS011;29217;52.586;13.442;2023-06-04T07:35:53;8.02;;;1.15;;
43626;SDS011;29217;52.586;13.442;2023-06-04T07:38:20;1.30;;;0.82;;
43626;SDS011;29217;52.586;13.442;2023-06-04T07:40:46;4.03;;;1.13;;
43626;SDS011;29217;52.586;13.442;2023-06-04T07:43:12;2.17;;;0.98;;
43626;SDS011;29217;52.586;13.442;2023-06-04T07:45:38;2.22;;;0.90;;
43626;SDS011;29217;52.586;13.442;2023-06-04T07:48:04;2.97;;;0.90;;
43626;SDS011;29217;52.586;13.442;2023-06-04T07:50:30;1.80;;;0.90;;
43626;SDS011;29217;52.586;13.442;2023-06-04T07:52:56;6.32;;;0.90;;
43626;SDS011;29217;52.586;13.442;2023-06-04T07:55:23;5.78;;;0.98;;
43626;SDS011;29217;52.586;13.442;2023-06-04T07:57:49;0.93;;;0.73;;
43626;SDS011;29217;52.586;13.442;2023-06-04T08:00:20;2.10;;;0.85;;
43626;SDS011;29217;52.586;13.442;2023-06-04T08:02:46;2.90;;;0.70;;
43626;SDS011;29217;52.586;13.442;2023-06-04T08:05:13;3.90;;;0.90;;
43626;SDS011;29217;52.586;13.442;2023-06-04T08:07:40;6.80;;;1.10;;
43626;SDS011;29217;52.586;13.442;2023-06-04T08:10:08;4.22;;;1.08;;
43626;SDS011;29217;52.586;13.442;2023-06-04T08:12:34;4.72;;;0.80;;
43626;SDS011;29217;52.586;13.442;2023-06-04T08:15:00;1.50;;;0.90;;
43626;SDS011;29217;52.586;13.442;2023-06-04T08:17:26;4.95;;;0.77;;
43626;SDS011;29217;52.586;13.442;2023-06-04T08:19:55;1.92;;;0.80;;
43626;SDS011;29217;52.586;13.442;2023-06-04T08:22:21;2.55;;;1.20;;
43626;SDS011;29217;52.586;13.442;2023-06-04T08:24:47;0.82;;;0.63;;
43626;SDS011;29217;52.586;13.442;2023-06-04T08:27:15;1.27;;;0.80;;
43626;SDS011;29217;52.586;13.442;2023-06-04T08:29:44;1.52;;;1.00;;
43626;SDS011;29217;52.586;13.442;2023-06-04T08:32:10;4.72;;;0.90;;
43626;SDS011;29217;52.586;13.442;2023-06-04T08:34:38;2.72;;;1.10;;
43626;SDS011;29217;52.586;13.442;2023-06-04T08:37:05;2.35;;;0.95;;
43626;SDS011;29217;52.586;13.442;2023-06-04T08:39:31;1.75;;;0.82;;
43626;SDS011;29217;52.586;13.442;2023-06-04T08:42:03;3.45;;;0.98;;
43626;SDS011;29217;52.586;13.442;2023-06-04T08:44:29;0.80;;;0.80;;
43626;SDS011;29217;52.586;13.442;2023-06-04T08:47:07;8.63;;;1.25;;
43626;SDS011;29217;52.586;13.442;2023-06-04T08:49:36;1.27;;;0.85;;
43626;SDS011;29217;52.586;13.442;2023-06-04T08:52:02;1.42;;;0.93;;
43626;SDS011;29217;52.586;13.442;2023-06-04T08:54:29;2.47;;;0.80;;
43626;SDS011;29217;52.586;13.442;2023-06-04T08:56:56;4.20;;;0.88;;
43626;SDS011;29217;52.586;13.442;2023-06-04T08:59:23;6.47;;;1.00;;
43626;SDS011;29217;52.586;13.442;2023-06-04T09:01:53;4.47;;;1.08;;
43626;SDS011;29217;52.586;13.442;2023-06-04T09:04:19;1.30;;;0.80;;
43626;SDS011;29217;52.586;13.442;2023-06-04T09:06:48;1.55;;;0.98;;
43626;SDS011;29217;52.586;13.442;2023-06-04T09:09:14;2.78;;;0.77;;
43626;SDS011;29217;52.586;13.442;2023-06-04T09:11:52;14.25;;;1.08;;
43626;SDS011;29217;52.586;13.442;2023-06-04T09:14:23;2.30;;;1.00;;
43626;SDS011;29217;52.586;13.442;2023-06-04T09:16:52;1.08;;;0.60;;
43626;SDS011;29217;52.586;13.442;2023-06-04T09:19:20;1.00;;;0.88;;
43626;SDS011;29217;52.586;13.442;2023-06-04T09:24:12;7.35;;;1.30;;
43626;SDS011;29217;52.586;13.442;2023-06-04T09:26:38;2.50;;;1.02;;
43626;SDS011;29217;52.586;13.442;2023-06-04T09:29:04;2.88;;;0.93;;
43626;SDS011;29217;52.586;13.442;2023-06-04T09:31:31;5.03;;;0.98;;
43626;SDS011;29217;52.586;13.442;2023-06-04T09:34:02;3.80;;;0.95;;
43626;SDS011;29217;52.586;13.442;2023-06-04T09:36:35;0.93;;;0.80;;
43626;SDS011;29217;52.586;13.442;2023-06-04T09:39:02;1.33;;;0.77;;
43626;SDS011;29217;52.586;13.442;2023-06-04T09:41:31;1.77;;;0.90;;
43626;SDS011;29217;52.586;13.442;2023-06-04T09:44:03;5.22;;;0.90;;
43626;SDS011;29217;52.586;13.442;2023-06-04T09:46:30;3.63;;;0.73;;
43626;SDS011;29217;52.586;13.442;2023-06-04T09:49:00;2.70;;;0.80;;
43626;SDS011;29217;52.586;13.442;2023-06-04T09:51:26;3.22;;;0.70;;
43626;SDS011;29217;52.586;13.442;2023-06-04T09:56:21;3.45;;;0.70;;
43626;SDS011;29217;52.586;13.442;2023-06-04T09:58:53;1.92;;;0.93;;
43626;SDS011;29217;52.586;13.442;2023-06-04T10:01:19;1.38;;;0.70;;
43626;SDS011;29217;52.586;13.442;2023-06-04T10:03:48;16.40;;;1.50;;
43626;SDS011;29217;52.586;13.442;2023-06-04T10:06:16;1.52;;;0.90;;
43626;SDS011;29217;52.586;13.442;2023-06-04T10:08:47;3.70;;;1.13;;
43626;SDS011;29217;52.586;13.442;2023-06-04T10:11:15;1.90;;;1.02;;
43626;SDS011;29217;52.586;13.442;2023-06-04T10:16:36;2.70;;;1.00;;
43626;SDS011;29217;52.586;13.442;2023-06-04T10:19:04;7.18;;;1.20;;
43626;SDS011;29217;52.586;13.442;2023-06-04T10:21:32;3.72;;;0.90;;
43626;SDS011;29217;52.586;13.442;2023-06-04T10:24:02;3.38;;;0.90;;
43626;SDS011;29217;52.586;13.442;2023-06-04T10:26:32;5.82;;;1.00;;
43626;SDS011;29217;52.586;13.442;2023-06-04T10:28:58;0.75;;;0.60;;
43626;SDS011;29217;52.586;13.442;2023-06-04T10:31:26;12.90;;;1.05;;
43626;SDS011;29217;52.586;13.442;2023-06-04T10:33:55;2.63;;;1.27;;
43626;SDS011;29217;52.586;13.442;2023-06-04T10:36:22;2.47;;;0.80;;
43626;SDS011;29217;52.586;13.442;2023-06-04T10:38:48;1.65;;;0.90;;
43626;SDS011;29217;52.586;13.442;2023-06-04T10:41:16;2.92;;;1.00;;
43626;SDS011;29217;52.586;13.442;2023-06-04T10:43:48;5.50;;;0.82;;
43626;SDS011;29217;52.586;13.442;2023-06-04T10:46:15;6.97;;;0.77;;
43626;SDS011;29217;52.586;13.442;2023-06-04T10:48:59;1.15;;;0.90;;
43626;SDS011;29217;52.586;13.442;2023-06-04T10:51:32;2.70;;;0.80;;
43626;SDS011;29217;52.586;13.442;2023-06-04T10:54:02;0.95;;;0.60;;
43626;SDS011;29217;52.586;13.442;2023-06-04T10:56:32;1.63;;;0.95;;
43626;SDS011;29217;52.586;13.442;2023-06-04T10:58:59;5.80;;;0.93;;
43626;SDS011;29217;52.586;13.442;2023-06-04T11:01:25;2.72;;;1.02;;
43626;SDS011;29217;52.586;13.442;2023-06-04T11:03:52;1.33;;;0.85;;
43626;SDS011;29217;52.586;13.442;2023-06-04T11:06:20;10.15;;;0.93;;
43626;SDS011;29217;52.586;13.442;2023-06-04T11:08:46;2.08;;;0.88;;
43626;SDS011;29217;52.586;13.442;2023-06-04T11:11:13;0.93;;;0.70;;
43626;SDS011;29217;52.586;13.442;2023-06-04T11:13:39;3.72;;;0.80;;
43626;SDS011;29217;52.586;13.442;2023-06-04T11:16:18;3.08;;;0.90;;
43626;SDS011;29217;52.586;13.442;2023-06-04T11:18:55;2.83;;;1.08;;
43626;SDS011;29217;52.586;13.442;2023-06-04T11:21:22;0.85;;;0.77;;
43626;SDS011;29217;52.586;13.442;2023-06-04T11:23:48;32.75;;;2.85;;
43626;SDS011;29217;52.586;13.442;2023-06-04T11:26:16;1.02;;;0.80;;
43626;SDS011;29217;52.586;13.442;2023-06-04T11:28:48;1.15;;;0.80;;
43626;SDS011;29217;52.586;13.442;2023-06-04T11:31:14;0.73;;;0.60;;
43626;SDS011;29217;52.586;13.442;2023-06-04T11:33:46;1.08;;;0.80;;
43626;SDS011;29217;52.586;13.442;2023-06-04T11:36:28;1.00;;;0.80;;
43626;SDS011;29217;52.586;13.442;2023-06-04T11:38:57;3.25;;;0.90;;
43626;SDS011;29217;52.586;13.442;2023-06-04T11:41:24;3.40;;;0.70;;
43626;SDS011;29217;52.586;13.442;2023-06-04T11:43:55;1.00;;;0.70;;
43626;SDS011;29217;52.586;13.442;2023-06-04T11:46:23;1.27;;;0.80;;
43626;SDS011;29217;52.586;13.442;2023-06-04T11:48:51;3.83;;;0.95;;
43626;SDS011;29217;52.586;13.442;2023-06-04T11:51:22;2.53;;;0.88;;
43626;SDS011;29217;52.586;13.442;2023-06-04T11:53:49;50.88;;;2.25;;
43626;SDS011;29217;52.586;13.442;2023-06-04T11:56:17;14.07;;;1.25;;
43626;SDS011;29217;52.586;13.442;2023-06-04T11:58:43;4.47;;;0.80;;
43626;SDS011;29217;52.586;13.442;2023-06-04T12:01:11;3.22;;;0.80;;
43626;SDS011;29217;52.586;13.442;2023-06-04T12:03:42;7.10;;;0.93;;
43626;SDS011;29217;52.586;13.442;2023-06-04T12:06:12;12.25;;;1.15;;
43626;SDS011;29217;52.586;13.442;2023-06-04T12:08:54;2.60;;;0.82;;
43626;SDS011;29217;52.586;13.442;2023-06-04T12:13:50;4.38;;;1.15;;
43626;SDS011;29217;52.586;13.442;2023-06-04T12:16:16;1.77;;;0.70;;
43626;SDS011;29217;52.586;13.442;2023-06-04T12:18:42;2.45;;;0.73;;
43626;SDS011;29217;52.586;13.442;2023-06-04T12:23:44;1.48;;;0.68;;
43626;SDS011;29217;52.586;13.442;2023-06-04T12:26:21;2.28;;;0.90;;
43626;SDS011;29217;52.586;13.442;2023-06-04T12:29:02;0.60;;;0.50;;
43626;SDS011;29217;52.586;13.442;2023-06-04T12:31:32;2.05;;;0.77;;
43626;SDS011;29217;52.586;13.442;2023-06-04T12:34:00;2.22;;;0.85;;
43626;SDS011;29217;52.586;13.442;2023-06-04T12:36:26;3.42;;;0.80;;
43626;SDS011;29217;52.586;13.442;2023-06-04T12:38:57;37.72;;;2.35;;
43626;SDS011;29217;52.586;13.442;2023-06-04T12:41:28;15.10;;;1.25;;
43626;SDS011;29217;52.586;13.442;2023-06-04T12:43:55;2.08;;;0.93;;
43626;SDS011;29217;52.586;13.442;2023-06-04T12:46:21;1.05;;;0.73;;
43626;SDS011;29217;52.586;13.442;2023-06-04T12:48:48;1.50;;;0.70;;
43626;SDS011;29217;52.586;13.442;2023-06-04T12:51:14;2.95;;;0.85;;
43626;SDS011;29217;52.586;13.442;2023-06-04T12:53:40;3.70;;;0.80;;
43626;SDS011;29217;52.586;13.442;2023-06-04T12:56:07;2.78;;;0.70;;
43626;SDS011;29217;52.586;13.442;2023-06-04T12:58:33;5.55;;;1.10;;
43626;SDS011;29217;52.586;13.442;2023-06-04T13:01:02;19.83;;;1.20;;
43626;SDS011;29217;52.586;13.442;2023-06-04T13:03:30;14.13;;;1.40;;
43626;SDS011;29217;52.586;13.442;2023-06-04T13:05:57;30.85;;;1.55;;
43626;SDS011;29217;52.586;13.442;2023-06-04T13:08:25;3.08;;;0.63;;
43626;SDS011;29217;52.586;13.442;2023-06-04T13:10:51;3.88;;;0.75;;
43626;SDS011;29217;52.586;13.442;2023-06-04T13:13:18;6.50;;;0.80;;
43626;SDS011;29217;52.586;13.442;2023-06-04T13:15:44;1.88;;;0.68;;
43626;SDS011;29217;52.586;13.442;2023-06-04T13:18:11;2.58;;;0.90;;
43626;SDS011;29217;52.586;13.442;2023-06-04T13:20:37;5.55;;;0.90;;
43626;SDS011;29217;52.586;13.442;2023-06-04T13:23:03;7.10;;;0.80;;
43626;SDS011;29217;52.586;13.442;2023-06-04T13:25:29;3.53;;;0.77;;
43626;SDS011;29217;52.586;13.442;2023-06-04T13:27:57;3.05;;;0.63;;
43626;SDS011;29217;52.586;13.442;2023-06-04T13:30:23;2.05;;;0.93;;
43626;SDS011;29217;52.586;13.442;2023-06-04T13:32:52;2.22;;;0.93;;
43626;SDS011;29217;52.586;13.442;2023-06-04T13:35:18;5.22;;;0.80;;
43626;SDS011;29217;52.586;13.442;2023-06-04T13:37:44;1.73;;;0.70;;
43626;SDS011;29217;52.586;13.442;2023-06-04T13:40:10;1.30;;;0.70;;
43626;SDS011;29217;52.586;13.442;2023-06-04T13:42:43;30.35;;;2.05;;
43626;SDS011;29217;52.586;13.442;2023-06-04T13:45:09;3.25;;;0.90;;
43626;SDS011;29217;52.586;13.442;2023-06-04T13:47:38;2.92;;;0.80;;
43626;SDS011;29217;52.586;13.442;2023-06-04T13:50:04;3.53;;;0.68;;
43626;SDS011;29217;52.586;13.442;2023-06-04T13:52:31;3.08;;;0.88;;
43626;SDS011;29217;52.586;13.442;2023-06-04T13:55:00;2.38;;;0.75;;
43626;SDS011;29217;52.586;13.442;2023-06-04T13:57:27;5.88;;;1.00;;
43626;SDS011;29217;52.586;13.442;2023-06-04T13:59:56;2.45;;;0.90;;
43626;SDS011;29217;52.586;13.442;2023-06-04T14:02:29;4.22;;;0.98;;
43626;SDS011;29217;52.586;13.442;2023-06-04T14:04:55;3.80;;;0.98;;
43626;SDS011;29217;52.586;13.442;2023-06-04T14:07:21;1.67;;;0.80;;
43626;SDS011;29217;52.586;13.442;2023-06-04T14:09:49;2.25;;;1.25;;
43626;SDS011;29217;52.586;13.442;2023-06-04T14:12:23;2.90;;;0.70;;
43626;SDS011;29217;52.586;13.442;2023-06-04T14:14:49;3.22;;;0.85;;
43626;SDS011;29217;52.586;13.442;2023-06-04T14:17:15;2.03;;;0.70;;
43626;SDS011;29217;52.586;13.442;2023-06-04T14:19:41;2.70;;;0.90;;
43626;SDS011;29217;52.586;13.442;2023-06-04T14:22:10;12.60;;;1.55;;
43626;SDS011;29217;52.586;13.442;2023-06-04T14:24:39;10.27;;;1.25;;
43626;SDS011;29217;52.586;13.442;2023-06-04T14:27:05;2.63;;;0.82;;
43626;SDS011;29217;52.586;13.442;2023-06-04T14:29:32;1.30;;;0.80;;
43626;SDS011;29217;52.586;13.442;2023-06-04T14:31:58;1.15;;;0.70;;
43626;SDS011;29217;52.586;13.442;2023-06-04T14:34:26;8.60;;;1.02;;
43626;SDS011;29217;52.586;13.442;2023-06-04T14:36:52;5.63;;;0.80;;
43626;SDS011;29217;52.586;13.442;2023-06-04T14:39:22;2.70;;;0.70;;
43626;SDS011;29217;52.586;13.442;2023-06-04T14:41:48;2.40;;;1.05;;
43626;SDS011;29217;52.586;13.442;2023-06-04T14:44:17;3.97;;;0.90;;
43626;SDS011;29217;52.586;13.442;2023-06-04T14:46:43;1.30;;;0.70;;
43626;SDS011;29217;52.586;13.442;2023-06-04T14:49:09;5.55;;;0.95;;
43626;SDS011;29217;52.586;13.442;2023-06-04T14:51:37;1.10;;;0.90;;